Lassen Volcanic National Par, California
Current Conditions -  °F | °C
As of 3:54 AM on Thursday 29 Jan 2015 (Local Time) from KRBL Reporting Station
Clear Clear  
Wind Chill: 40°   Ceiling: Unl
Heat Index: 44°   Visibility: 10mi
Dew Point: 39°   Wind: 7mph
Humidity: 82%   Direction: 320°NW
Pressure: 30.19"   Gusts: NA
Location:  40.3399°N, 121.499°W
Report Text: KRBL 291154Z AUTO 32006KT 10SM CLR 07/04 A3019 RMK AO2 SLP222 T00670039 10122 20050 58001
Loading
Personal Weather Stations






























Interactive Weather Map New forecast layout! Learn more

10-Day Weather Forecast

Advertisements
Track Severe Weather on mobile